sensor_id;sensor_type;location;lat;lon;timestamp;temperature;humidity
82001;SHT30;71522;50.870;3.524;2023-08-20T00:00:33;18.23;77.74
82001;SHT30;71522;50.870;3.524;2023-08-20T00:03:07;18.20;78.57
82001;SHT30;71522;50.870;3.524;2023-08-20T00:05:36;18.14;78.39
82001;SHT30;71522;50.870;3.524;2023-08-20T00:08:01;18.10;78.85
82001;SHT30;71522;50.870;3.524;2023-08-20T00:10:30;18.03;78.40
82001;SHT30;71522;50.870;3.524;2023-08-20T00:12:56;18.00;79.42
82001;SHT30;71522;50.870;3.524;2023-08-20T00:15:21;18.02;78.72
82001;SHT30;71522;50.870;3.524;2023-08-20T00:17:52;18.03;79.18
82001;SHT30;71522;50.870;3.524;2023-08-20T00:20:19;18.05;79.15
82001;SHT30;71522;50.870;3.524;2023-08-20T00:22:45;18.05;79.37
82001;SHT30;71522;50.870;3.524;2023-08-20T00:25:13;18.10;79.87
82001;SHT30;71522;50.870;3.524;2023-08-20T00:27:40;18.20;80.81
82001;SHT30;71522;50.870;3.524;2023-08-20T00:30:07;18.26;79.82
82001;SHT30;71522;50.870;3.524;2023-08-20T00:32:33;18.33;78.82
82001;SHT30;71522;50.870;3.524;2023-08-20T00:34:59;18.44;78.17
82001;SHT30;71522;50.870;3.524;2023-08-20T00:37:25;18.53;77.88
82001;SHT30;71522;50.870;3.524;2023-08-20T00:39:51;18.67;77.60
82001;SHT30;71522;50.870;3.524;2023-08-20T00:42:17;18.78;77.11
82001;SHT30;71522;50.870;3.524;2023-08-20T00:44:43;18.89;76.72
82001;SHT30;71522;50.870;3.524;2023-08-20T00:47:12;18.96;75.99
82001;SHT30;71522;50.870;3.524;2023-08-20T00:49:39;18.98;75.84
82001;SHT30;71522;50.870;3.524;2023-08-20T00:52:08;19.01;75.75
82001;SHT30;71522;50.870;3.524;2023-08-20T00:54:35;18.99;76.10
82001;SHT30;71522;50.870;3.524;2023-08-20T00:57:02;18.94;76.25
82001;SHT30;71522;50.870;3.524;2023-08-20T00:59:32;18.92;76.80
82001;SHT30;71522;50.870;3.524;2023-08-20T01:01:58;18.92;76.98
82001;SHT30;71522;50.870;3.524;2023-08-20T01:04:24;18.95;76.60
82001;SHT30;71522;50.870;3.524;2023-08-20T01:12:22;19.09;76.66
82001;SHT30;71522;50.870;3.524;2023-08-20T01:14:48;19.19;75.93
82001;SHT30;71522;50.870;3.524;2023-08-20T01:17:14;19.29;75.79
82001;SHT30;71522;50.870;3.524;2023-08-20T01:19:40;19.36;75.22
82001;SHT30;71522;50.870;3.524;2023-08-20T01:27:57;19.46;74.09
82001;SHT30;71522;50.870;3.524;2023-08-20T01:30:24;19.45;75.02
82001;SHT30;71522;50.870;3.524;2023-08-20T01:32:52;19.36;75.01
82001;SHT30;71522;50.870;3.524;2023-08-20T01:35:18;19.20;75.37
82001;SHT30;71522;50.870;3.524;2023-08-20T01:37:44;19.05;75.05
82001;SHT30;71522;50.870;3.524;2023-08-20T01:40:11;18.89;76.02
82001;SHT30;71522;50.870;3.524;2023-08-20T01:42:37;18.74;76.45
82001;SHT30;71522;50.870;3.524;2023-08-20T01:45:04;18.60;77.53
82001;SHT30;71522;50.870;3.524;2023-08-20T01:47:31;18.43;77.94
82001;SHT30;71522;50.870;3.524;2023-08-20T01:49:57;18.30;78.63
82001;SHT30;71522;50.870;3.524;2023-08-20T01:52:25;18.20;79.38
82001;SHT30;71522;50.870;3.524;2023-08-20T01:54:51;18.09;80.02
82001;SHT30;71522;50.870;3.524;2023-08-20T01:57:16;18.10;81.04
82001;SHT30;71522;50.870;3.524;2023-08-20T01:59:42;18.09;80.14
82001;SHT30;71522;50.870;3.524;2023-08-20T02:02:08;18.03;79.69
82001;SHT30;71522;50.870;3.524;2023-08-20T02:04:34;17.96;80.55
82001;SHT30;71522;50.870;3.524;2023-08-20T02:07:00;17.92;80.56
82001;SHT30;71522;50.870;3.524;2023-08-20T02:09:25;17.96;81.18
82001;SHT30;71522;50.870;3.524;2023-08-20T02:11:52;17.97;81.55
82001;SHT30;71522;50.870;3.524;2023-08-20T02:14:17;18.00;81.41
82001;SHT30;71522;50.870;3.524;2023-08-20T02:16:43;18.00;80.90
82001;SHT30;71522;50.870;3.524;2023-08-20T02:19:09;18.00;80.71
82001;SHT30;71522;50.870;3.524;2023-08-20T02:21:36;17.97;80.17
82001;SHT30;71522;50.870;3.524;2023-08-20T02:24:01;17.99;79.95
82001;SHT30;71522;50.870;3.524;2023-08-20T02:26:27;17.96;79.90
82001;SHT30;71522;50.870;3.524;2023-08-20T02:28:53;17.87;79.43
82001;SHT30;71522;50.870;3.524;2023-08-20T02:31:18;17.83;79.96
82001;SHT30;71522;50.870;3.524;2023-08-20T02:33:44;17.78;80.21
82001;SHT30;71522;50.870;3.524;2023-08-20T02:36:10;17.81;80.79
82001;SHT30;71522;50.870;3.524;2023-08-20T02:38:35;17.93;81.65
82001;SHT30;71522;50.870;3.524;2023-08-20T02:41:01;18.17;80.99
82001;SHT30;71522;50.870;3.524;2023-08-20T02:43:30;18.36;79.90
82001;SHT30;71522;50.870;3.524;2023-08-20T02:45:57;18.51;79.26
82001;SHT30;71522;50.870;3.524;2023-08-20T02:48:24;18.64;79.10
82001;SHT30;71522;50.870;3.524;2023-08-20T02:50:53;18.74;79.43
82001;SHT30;71522;50.870;3.524;2023-08-20T02:53:20;18.82;79.33
82001;SHT30;71522;50.870;3.524;2023-08-20T02:55:46;18.89;78.71
82001;SHT30;71522;50.870;3.524;2023-08-20T02:58:12;18.95;78.77
82001;SHT30;71522;50.870;3.524;2023-08-20T03:00:38;18.92;78.56
82001;SHT30;71522;50.870;3.524;2023-08-20T03:03:04;18.94;79.15
82001;SHT30;71522;50.870;3.524;2023-08-20T03:05:35;18.89;78.74
82001;SHT30;71522;50.870;3.524;2023-08-20T03:08:01;18.84;78.89
82001;SHT30;71522;50.870;3.524;2023-08-20T03:10:29;18.84;79.32
82001;SHT30;71522;50.870;3.524;2023-08-20T03:12:56;18.87;79.39
82001;SHT30;71522;50.870;3.524;2023-08-20T03:15:22;18.91;79.23
82001;SHT30;71522;50.870;3.524;2023-08-20T03:17:47;18.85;78.76
82001;SHT30;71522;50.870;3.524;2023-08-20T03:20:14;18.82;79.04
82001;SHT30;71522;50.870;3.524;2023-08-20T03:22:40;18.76;79.67
82001;SHT30;71522;50.870;3.524;2023-08-20T03:25:06;18.76;79.78
82001;SHT30;71522;50.870;3.524;2023-08-20T03:27:32;18.75;79.54
82001;SHT30;71522;50.870;3.524;2023-08-20T03:29:58;18.75;79.66
82001;SHT30;71522;50.870;3.524;2023-08-20T03:32:23;18.75;79.38
82001;SHT30;71522;50.870;3.524;2023-08-20T03:34:50;18.67;79.19
82001;SHT30;71522;50.870;3.524;2023-08-20T03:37:16;18.65;79.74
82001;SHT30;71522;50.870;3.524;2023-08-20T03:39:42;18.62;79.80
82001;SHT30;71522;50.870;3.524;2023-08-20T03:42:07;18.57;79.65
82001;SHT30;71522;50.870;3.524;2023-08-20T03:44:53;18.51;79.40
82001;SHT30;71522;50.870;3.524;2023-08-20T03:47:19;18.53;79.08
82001;SHT30;71522;50.870;3.524;2023-08-20T03:49:46;18.54;79.07
82001;SHT30;71522;50.870;3.524;2023-08-20T03:52:13;18.48;78.91
82001;SHT30;71522;50.870;3.524;2023-08-20T03:54:39;18.37;78.65
82001;SHT30;71522;50.870;3.524;2023-08-20T03:57:04;18.24;77.79
82001;SHT30;71522;50.870;3.524;2023-08-20T03:59:30;18.09;76.83
82001;SHT30;71522;50.870;3.524;2023-08-20T04:01:56;17.92;76.69
82001;SHT30;71522;50.870;3.524;2023-08-20T04:04:22;17.71;77.89
82001;SHT30;71522;50.870;3.524;2023-08-20T04:06:48;17.54;79.21
82001;SHT30;71522;50.870;3.524;2023-08-20T04:09:14;17.41;79.75
82001;SHT30;71522;50.870;3.524;2023-08-20T04:11:39;17.31;79.53
82001;SHT30;71522;50.870;3.524;2023-08-20T04:14:06;17.11;78.20
82001;SHT30;71522;50.870;3.524;2023-08-20T04:16:32;16.89;80.23
82001;SHT30;71522;50.870;3.524;2023-08-20T04:18:58;16.87;80.67
82001;SHT30;71522;50.870;3.524;2023-08-20T04:21:23;16.76;79.95
82001;SHT30;71522;50.870;3.524;2023-08-20T04:23:49;16.66;79.34
82001;SHT30;71522;50.870;3.524;2023-08-20T04:26:14;16.60;79.58
82001;SHT30;71522;50.870;3.524;2023-08-20T04:28:40;16.59;79.47
82001;SHT30;71522;50.870;3.524;2023-08-20T04:31:06;16.60;80.69
82001;SHT30;71522;50.870;3.524;2023-08-20T04:33:31;16.60;80.60
82001;SHT30;71522;50.870;3.524;2023-08-20T04:35:57;16.59;79.84
82001;SHT30;71522;50.870;3.524;2023-08-20T04:38:23;16.52;78.88
82001;SHT30;71522;50.870;3.524;2023-08-20T04:40:49;16.45;79.89
82001;SHT30;71522;50.870;3.524;2023-08-20T04:43:15;16.45;80.45
82001;SHT30;71522;50.870;3.524;2023-08-20T04:45:42;16.38;79.17
82001;SHT30;71522;50.870;3.524;2023-08-20T04:48:08;16.29;78.51
82001;SHT30;71522;50.870;3.524;2023-08-20T04:50:34;16.21;79.38
82001;SHT30;71522;50.870;3.524;2023-08-20T04:53:00;16.12;79.41
82001;SHT30;71522;50.870;3.524;2023-08-20T04:55:29;16.17;80.36
82001;SHT30;71522;50.870;3.524;2023-08-20T04:57:55;16.32;81.09
82001;SHT30;71522;50.870;3.524;2023-08-20T05:00:21;16.44;82.29
82001;SHT30;71522;50.870;3.524;2023-08-20T05:03:11;16.65;81.37
82001;SHT30;71522;50.870;3.524;2023-08-20T05:05:37;16.75;81.69
82001;SHT30;71522;50.870;3.524;2023-08-20T05:08:03;16.87;81.32
82001;SHT30;71522;50.870;3.524;2023-08-20T05:10:28;16.96;81.04
82001;SHT30;71522;50.870;3.524;2023-08-20T05:12:54;16.96;79.44
82001;SHT30;71522;50.870;3.524;2023-08-20T05:15:20;16.99;79.22
82001;SHT30;71522;50.870;3.524;2023-08-20T05:17:50;16.99;79.37
82001;SHT30;71522;50.870;3.524;2023-08-20T05:20:16;16.97;79.48
82001;SHT30;71522;50.870;3.524;2023-08-20T05:22:42;16.99;79.05
82001;SHT30;71522;50.870;3.524;2023-08-20T05:25:07;17.07;79.17
82001;SHT30;71522;50.870;3.524;2023-08-20T05:27:35;17.11;79.20
82001;SHT30;71522;50.870;3.524;2023-08-20T05:30:00;17.18;80.02
82001;SHT30;71522;50.870;3.524;2023-08-20T05:32:26;17.30;80.80
82001;SHT30;71522;50.870;3.524;2023-08-20T05:34:52;17.31;79.80
82001;SHT30;71522;50.870;3.524;2023-08-20T05:37:17;17.32;79.57
82001;SHT30;71522;50.870;3.524;2023-08-20T05:39:44;17.39;79.47
82001;SHT30;71522;50.870;3.524;2023-08-20T05:42:11;17.41;79.53
82001;SHT30;71522;50.870;3.524;2023-08-20T05:44:36;17.45;81.37
82001;SHT30;71522;50.870;3.524;2023-08-20T05:47:02;17.54;81.46
82001;SHT30;71522;50.870;3.524;2023-08-20T05:49:28;17.64;80.54
82001;SHT30;71522;50.870;3.524;2023-08-20T05:51:54;17.78;79.27
82001;SHT30;71522;50.870;3.524;2023-08-20T05:54:19;17.87;78.95
82001;SHT30;71522;50.870;3.524;2023-08-20T05:56:56;17.95;79.27
82001;SHT30;71522;50.870;3.524;2023-08-20T05:59:22;18.05;80.03
82001;SHT30;71522;50.870;3.524;2023-08-20T06:01:48;18.14;80.15
82001;SHT30;71522;50.870;3.524;2023-08-20T06:04:13;18.23;79.76
82001;SHT30;71522;50.870;3.524;2023-08-20T06:06:40;18.41;79.95
82001;SHT30;71522;50.870;3.524;2023-08-20T06:09:06;18.64;79.46
82001;SHT30;71522;50.870;3.524;2023-08-20T06:11:32;18.89;79.20
82001;SHT30;71522;50.870;3.524;2023-08-20T06:13:58;19.11;77.93
82001;SHT30;71522;50.870;3.524;2023-08-20T06:16:23;19.34;77.96
82001;SHT30;71522;50.870;3.524;2023-08-20T06:18:49;19.63;77.84
82001;SHT30;71522;50.870;3.524;2023-08-20T06:21:14;19.92;77.18
82001;SHT30;71522;50.870;3.524;2023-08-20T06:23:41;20.18;75.96
82001;SHT30;71522;50.870;3.524;2023-08-20T06:26:06;20.50;74.10
82001;SHT30;71522;50.870;3.524;2023-08-20T06:28:32;20.77;73.49
82001;SHT30;71522;50.870;3.524;2023-08-20T06:30:58;21.04;73.52
82001;SHT30;71522;50.870;3.524;2023-08-20T06:33:23;21.18;76.44
82001;SHT30;71522;50.870;3.524;2023-08-20T06:35:49;21.15;76.35
82001;SHT30;71522;50.870;3.524;2023-08-20T06:38:15;21.08;74.41
82001;SHT30;71522;50.870;3.524;2023-08-20T06:40:41;21.01;76.02
82001;SHT30;71522;50.870;3.524;2023-08-20T06:43:07;21.00;76.61
82001;SHT30;71522;50.870;3.524;2023-08-20T06:45:33;21.00;76.63
82001;SHT30;71522;50.870;3.524;2023-08-20T06:47:59;21.12;73.89
82001;SHT30;71522;50.870;3.524;2023-08-20T06:50:24;21.25;74.75
82001;SHT30;71522;50.870;3.524;2023-08-20T06:52:50;21.34;73.69
82001;SHT30;71522;50.870;3.524;2023-08-20T06:55:16;21.45;72.26
82001;SHT30;71522;50.870;3.524;2023-08-20T06:57:41;21.49;72.03
82001;SHT30;71522;50.870;3.524;2023-08-20T07:00:07;21.51;70.84
82001;SHT30;71522;50.870;3.524;2023-08-20T07:02:33;21.49;71.27
82001;SHT30;71522;50.870;3.524;2023-08-20T07:04:58;21.55;69.77
82001;SHT30;71522;50.870;3.524;2023-08-20T07:07:24;21.55;70.70
82001;SHT30;71522;50.870;3.524;2023-08-20T07:09:49;21.61;71.19
82001;SHT30;71522;50.870;3.524;2023-08-20T07:12:15;21.65;71.54
82001;SHT30;71522;50.870;3.524;2023-08-20T07:14:41;21.66;72.01
82001;SHT30;71522;50.870;3.524;2023-08-20T07:17:07;21.66;70.52
82001;SHT30;71522;50.870;3.524;2023-08-20T07:19:33;21.65;69.57
82001;SHT30;71522;50.870;3.524;2023-08-20T07:21:59;21.67;68.40
82001;SHT30;71522;50.870;3.524;2023-08-20T07:24:27;21.72;71.31
82001;SHT30;71522;50.870;3.524;2023-08-20T07:26:55;21.76;70.75
82001;SHT30;71522;50.870;3.524;2023-08-20T07:29:30;21.76;68.61
82001;SHT30;71522;50.870;3.524;2023-08-20T07:31:56;21.76;70.93
82001;SHT30;71522;50.870;3.524;2023-08-20T07:34:27;21.81;71.10
82001;SHT30;71522;50.870;3.524;2023-08-20T07:36:52;21.75;69.93
82001;SHT30;71522;50.870;3.524;2023-08-20T07:39:18;21.72;72.42
82001;SHT30;71522;50.870;3.524;2023-08-20T07:41:44;21.75;74.67
82001;SHT30;71522;50.870;3.524;2023-08-20T07:44:17;21.73;70.83
82001;SHT30;71522;50.870;3.524;2023-08-20T07:46:44;21.71;71.73
82001;SHT30;71522;50.870;3.524;2023-08-20T07:49:09;21.75;71.44
82001;SHT30;71522;50.870;3.524;2023-08-20T07:51:36;21.75;70.18
82001;SHT30;71522;50.870;3.524;2023-08-20T07:54:02;21.72;69.81
82001;SHT30;71522;50.870;3.524;2023-08-20T07:56:29;21.79;71.42
82001;SHT30;71522;50.870;3.524;2023-08-20T07:58:55;21.75;71.80
82001;SHT30;71522;50.870;3.524;2023-08-20T08:01:20;21.83;70.14
82001;SHT30;71522;50.870;3.524;2023-08-20T08:03:46;21.92;68.77
82001;SHT30;71522;50.870;3.524;2023-08-20T08:06:12;21.96;70.57
82001;SHT30;71522;50.870;3.524;2023-08-20T08:08:43;21.96;70.07
82001;SHT30;71522;50.870;3.524;2023-08-20T08:11:12;21.96;69.34
82001;SHT30;71522;50.870;3.524;2023-08-20T08:13:38;22.09;69.02
82001;SHT30;71522;50.870;3.524;2023-08-20T08:16:06;22.12;67.24
82001;SHT30;71522;50.870;3.524;2023-08-20T08:18:35;22.18;65.64
82001;SHT30;71522;50.870;3.524;2023-08-20T08:21:01;22.23;62.19
82001;SHT30;71522;50.870;3.524;2023-08-20T08:23:26;22.29;66.56
82001;SHT30;71522;50.870;3.524;2023-08-20T08:25:52;22.39;68.51
82001;SHT30;71522;50.870;3.524;2023-08-20T08:28:18;22.44;63.81
82001;SHT30;71522;50.870;3.524;2023-08-20T08:30:49;22.48;63.75
82001;SHT30;71522;50.870;3.524;2023-08-20T08:33:15;22.55;62.65
82001;SHT30;71522;50.870;3.524;2023-08-20T08:35:41;22.60;62.26
82001;SHT30;71522;50.870;3.524;2023-08-20T08:38:10;22.60;62.00
82001;SHT30;71522;50.870;3.524;2023-08-20T08:40:36;22.62;59.87
82001;SHT30;71522;50.870;3.524;2023-08-20T08:43:03;22.73;61.34
82001;SHT30;71522;50.870;3.524;2023-08-20T08:45:29;22.79;60.76
82001;SHT30;71522;50.870;3.524;2023-08-20T08:47:55;22.88;62.15
82001;SHT30;71522;50.870;3.524;2023-08-20T08:50:21;22.88;60.62
82001;SHT30;71522;50.870;3.524;2023-08-20T08:52:51;22.98;59.53
82001;SHT30;71522;50.870;3.524;2023-08-20T08:55:17;23.05;59.93
82001;SHT30;71522;50.870;3.524;2023-08-20T08:57:43;23.08;60.76
82001;SHT30;71522;50.870;3.524;2023-08-20T09:00:09;23.18;60.26
82001;SHT30;71522;50.870;3.524;2023-08-20T09:02:35;23.29;60.20
82001;SHT30;71522;50.870;3.524;2023-08-20T09:05:00;23.26;59.13
82001;SHT30;71522;50.870;3.524;2023-08-20T09:07:26;23.30;59.48
82001;SHT30;71522;50.870;3.524;2023-08-20T09:09:58;23.36;59.96
82001;SHT30;71522;50.870;3.524;2023-08-20T09:12:25;23.46;60.82
82001;SHT30;71522;50.870;3.524;2023-08-20T09:14:51;23.60;62.07
82001;SHT30;71522;50.870;3.524;2023-08-20T09:17:18;23.66;60.15
82001;SHT30;71522;50.870;3.524;2023-08-20T09:19:49;23.74;59.51
82001;SHT30;71522;50.870;3.524;2023-08-20T09:22:15;23.78;60.51
82001;SHT30;71522;50.870;3.524;2023-08-20T09:24:55;23.81;59.80
82001;SHT30;71522;50.870;3.524;2023-08-20T09:27:21;23.81;59.82
82001;SHT30;71522;50.870;3.524;2023-08-20T09:29:50;23.84;58.83
82001;SHT30;71522;50.870;3.524;2023-08-20T09:32:26;23.91;57.34
82001;SHT30;71522;50.870;3.524;2023-08-20T09:34:53;23.95;57.70
82001;SHT30;71522;50.870;3.524;2023-08-20T09:37:22;24.02;55.53
82001;SHT30;71522;50.870;3.524;2023-08-20T09:39:49;24.08;57.08
82001;SHT30;71522;50.870;3.524;2023-08-20T09:42:15;24.14;55.66
82001;SHT30;71522;50.870;3.524;2023-08-20T09:44:46;24.18;53.90
82001;SHT30;71522;50.870;3.524;2023-08-20T09:47:16;24.16;53.02
82001;SHT30;71522;50.870;3.524;2023-08-20T09:49:47;24.21;55.62
82001;SHT30;71522;50.870;3.524;2023-08-20T09:52:31;24.19;53.94
82001;SHT30;71522;50.870;3.524;2023-08-20T09:55:22;24.28;55.58
82001;SHT30;71522;50.870;3.524;2023-08-20T09:57:49;24.37;54.33
82001;SHT30;71522;50.870;3.524;2023-08-20T10:00:16;24.49;59.31
82001;SHT30;71522;50.870;3.524;2023-08-20T10:02:43;24.55;55.80
82001;SHT30;71522;50.870;3.524;2023-08-20T10:05:12;24.55;56.61
82001;SHT30;71522;50.870;3.524;2023-08-20T10:07:38;24.56;54.75
82001;SHT30;71522;50.870;3.524;2023-08-20T10:10:07;24.60;56.65
82001;SHT30;71522;50.870;3.524;2023-08-20T10:12:47;24.67;58.41
82001;SHT30;71522;50.870;3.524;2023-08-20T10:15:14;24.80;58.43
82001;SHT30;71522;50.870;3.524;2023-08-20T10:17:43;25.02;57.71
82001;SHT30;71522;50.870;3.524;2023-08-20T10:20:10;25.17;55.89
82001;SHT30;71522;50.870;3.524;2023-08-20T10:22:43;25.28;59.54
82001;SHT30;71522;50.870;3.524;2023-08-20T10:25:29;25.30;58.84
82001;SHT30;71522;50.870;3.524;2023-08-20T10:36:20;25.79;58.09
82001;SHT30;71522;50.870;3.524;2023-08-20T10:38:53;26.02;58.80
82001;SHT30;71522;50.870;3.524;2023-08-20T10:41:28;26.21;54.17
82001;SHT30;71522;50.870;3.524;2023-08-20T10:43:58;26.20;58.29
82001;SHT30;71522;50.870;3.524;2023-08-20T10:46:26;26.24;56.27
82001;SHT30;71522;50.870;3.524;2023-08-20T10:48:57;26.31;56.17
82001;SHT30;71522;50.870;3.524;2023-08-20T10:51:33;26.44;54.89
82001;SHT30;71522;50.870;3.524;2023-08-20T10:54:18;26.41;56.00
82001;SHT30;71522;50.870;3.524;2023-08-20T10:56:44;26.45;56.28
82001;SHT30;71522;50.870;3.524;2023-08-20T10:59:15;26.67;57.27
82001;SHT30;71522;50.870;3.524;2023-08-20T11:01:52;26.71;54.06
82001;SHT30;71522;50.870;3.524;2023-08-20T11:04:22;26.78;56.81
82001;SHT30;71522;50.870;3.524;2023-08-20T11:06:53;26.89;57.14
82001;SHT30;71522;50.870;3.524;2023-08-20T11:09:23;27.09;57.62
82001;SHT30;71522;50.870;3.524;2023-08-20T11:11:50;27.19;52.50
82001;SHT30;71522;50.870;3.524;2023-08-20T11:14:18;27.12;52.16
82001;SHT30;71522;50.870;3.524;2023-08-20T11:16:45;27.15;54.91
82001;SHT30;71522;50.870;3.524;2023-08-20T11:19:12;27.32;54.45
82001;SHT30;71522;50.870;3.524;2023-08-20T11:21:40;27.32;51.17
82001;SHT30;71522;50.870;3.524;2023-08-20T11:24:10;27.19;51.43
82001;SHT30;71522;50.870;3.524;2023-08-20T11:26:56;27.09;53.20
82001;SHT30;71522;50.870;3.524;2023-08-20T11:29:22;27.03;54.18
82001;SHT30;71522;50.870;3.524;2023-08-20T11:31:48;26.88;54.55
82001;SHT30;71522;50.870;3.524;2023-08-20T11:34:14;26.84;52.69
82001;SHT30;71522;50.870;3.524;2023-08-20T11:36:43;26.91;52.48
82001;SHT30;71522;50.870;3.524;2023-08-20T11:39:09;26.95;54.57
82001;SHT30;71522;50.870;3.524;2023-08-20T11:41:39;27.05;53.23
82001;SHT30;71522;50.870;3.524;2023-08-20T11:44:07;27.08;52.72
82001;SHT30;71522;50.870;3.524;2023-08-20T11:46:42;27.29;53.23
82001;SHT30;71522;50.870;3.524;2023-08-20T11:49:10;27.36;51.08
82001;SHT30;71522;50.870;3.524;2023-08-20T11:51:41;27.56;54.94
82001;SHT30;71522;50.870;3.524;2023-08-20T11:54:09;27.88;54.53
82001;SHT30;71522;50.870;3.524;2023-08-20T11:56:50;28.09;53.70
82001;SHT30;71522;50.870;3.524;2023-08-20T11:59:18;28.28;51.61
82001;SHT30;71522;50.870;3.524;2023-08-20T12:01:59;28.51;52.72
82001;SHT30;71522;50.870;3.524;2023-08-20T12:04:27;28.70;52.15
82001;SHT30;71522;50.870;3.524;2023-08-20T12:07:05;28.91;52.31
82001;SHT30;71522;50.870;3.524;2023-08-20T12:09:32;29.06;53.74
82001;SHT30;71522;50.870;3.524;2023-08-20T12:11:59;28.90;47.88
82001;SHT30;71522;50.870;3.524;2023-08-20T12:14:25;28.86;50.23
82001;SHT30;71522;50.870;3.524;2023-08-20T12:16:54;28.63;49.17
82001;SHT30;71522;50.870;3.524;2023-08-20T12:19:19;28.55;54.79
82001;SHT30;71522;50.870;3.524;2023-08-20T12:21:45;28.82;53.08
82001;SHT30;71522;50.870;3.524;2023-08-20T12:24:11;29.01;49.19
82001;SHT30;71522;50.870;3.524;2023-08-20T12:26:39;29.00;52.09
82001;SHT30;71522;50.870;3.524;2023-08-20T12:29:05;29.20;51.94
82001;SHT30;71522;50.870;3.524;2023-08-20T12:31:34;29.37;51.78
82001;SHT30;71522;50.870;3.524;2023-08-20T12:34:00;29.49;53.73
82001;SHT30;71522;50.870;3.524;2023-08-20T12:36:27;29.72;53.27
82001;SHT30;71522;50.870;3.524;2023-08-20T12:38:53;29.78;48.49
82001;SHT30;71522;50.870;3.524;2023-08-20T12:41:20;29.83;51.68
82001;SHT30;71522;50.870;3.524;2023-08-20T12:43:46;30.16;48.94
82001;SHT30;71522;50.870;3.524;2023-08-20T12:46:12;30.03;48.12
82001;SHT30;71522;50.870;3.524;2023-08-20T12:48:39;29.97;49.02
82001;SHT30;71522;50.870;3.524;2023-08-20T12:51:05;30.05;51.32
82001;SHT30;71522;50.870;3.524;2023-08-20T12:53:31;30.07;54.02
82001;SHT30;71522;50.870;3.524;2023-08-20T12:55:58;30.16;54.16
82001;SHT30;71522;50.870;3.524;2023-08-20T12:58:24;30.12;52.36
82001;SHT30;71522;50.870;3.524;2023-08-20T13:00:50;30.18;52.55
82001;SHT30;71522;50.870;3.524;2023-08-20T13:03:17;30.24;54.79
82001;SHT30;71522;50.870;3.524;2023-08-20T13:05:44;30.41;50.10
82001;SHT30;71522;50.870;3.524;2023-08-20T13:08:12;30.82;49.76
82001;SHT30;71522;50.870;3.524;2023-08-20T13:10:42;31.12;50.76
82001;SHT30;71522;50.870;3.524;2023-08-20T13:13:12;31.40;49.50
82001;SHT30;71522;50.870;3.524;2023-08-20T13:15:38;31.73;51.89
82001;SHT30;71522;50.870;3.524;2023-08-20T13:18:04;31.47;47.32
82001;SHT30;71522;50.870;3.524;2023-08-20T13:20:30;31.26;48.41
82001;SHT30;71522;50.870;3.524;2023-08-20T13:22:59;31.47;52.15
82001;SHT30;71522;50.870;3.524;2023-08-20T13:25:24;31.81;48.35
82001;SHT30;71522;50.870;3.524;2023-08-20T13:27:51;32.15;47.38
82001;SHT30;71522;50.870;3.524;2023-08-20T13:30:17;32.35;45.37
82001;SHT30;71522;50.870;3.524;2023-08-20T13:32:43;32.07;45.18
82001;SHT30;71522;50.870;3.524;2023-08-20T13:35:09;31.29;47.32
82001;SHT30;71522;50.870;3.524;2023-08-20T13:37:34;30.89;47.44
82001;SHT30;71522;50.870;3.524;2023-08-20T13:40:00;30.45;47.92
82001;SHT30;71522;50.870;3.524;2023-08-20T13:42:26;30.10;50.12
82001;SHT30;71522;50.870;3.524;2023-08-20T13:44:53;29.82;47.91
82001;SHT30;71522;50.870;3.524;2023-08-20T13:47:19;29.25;50.19
82001;SHT30;71522;50.870;3.524;2023-08-20T13:49:44;29.01;51.46
82001;SHT30;71522;50.870;3.524;2023-08-20T13:52:10;29.01;53.41
82001;SHT30;71522;50.870;3.524;2023-08-20T13:54:36;28.82;51.40
82001;SHT30;71522;50.870;3.524;2023-08-20T13:57:03;28.82;55.08
82001;SHT30;71522;50.870;3.524;2023-08-20T13:59:31;28.99;56.56
82001;SHT30;71522;50.870;3.524;2023-08-20T14:01:58;29.18;54.17
82001;SHT30;71522;50.870;3.524;2023-08-20T14:04:24;29.38;50.78
82001;SHT30;71522;50.870;3.524;2023-08-20T14:06:50;29.58;49.03
82001;SHT30;71522;50.870;3.524;2023-08-20T14:09:16;29.63;52.54
82001;SHT30;71522;50.870;3.524;2023-08-20T14:11:47;29.57;56.29
82001;SHT30;71522;50.870;3.524;2023-08-20T14:14:15;29.58;51.58
82001;SHT30;71522;50.870;3.524;2023-08-20T14:16:40;29.75;51.20
82001;SHT30;71522;50.870;3.524;2023-08-20T14:19:06;30.10;54.83
82001;SHT30;71522;50.870;3.524;2023-08-20T14:21:34;30.24;49.89
82001;SHT30;71522;50.870;3.524;2023-08-20T14:23:59;30.20;52.32
82001;SHT30;71522;50.870;3.524;2023-08-20T14:26:25;30.00;49.23
82001;SHT30;71522;50.870;3.524;2023-08-20T14:28:50;29.72;49.30
82001;SHT30;71522;50.870;3.524;2023-08-20T14:31:16;29.99;50.66
82001;SHT30;71522;50.870;3.524;2023-08-20T14:33:44;30.34;48.43
82001;SHT30;71522;50.870;3.524;2023-08-20T14:36:10;30.86;48.08
82001;SHT30;71522;50.870;3.524;2023-08-20T14:38:35;31.34;47.18
82001;SHT30;71522;50.870;3.524;2023-08-20T14:41:02;31.74;46.03
82001;SHT30;71522;50.870;3.524;2023-08-20T14:43:29;32.01;47.84
82001;SHT30;71522;50.870;3.524;2023-08-20T14:45:56;31.83;45.46
82001;SHT30;71522;50.870;3.524;2023-08-20T14:48:23;31.91;49.13
82001;SHT30;71522;50.870;3.524;2023-08-20T14:50:50;31.57;48.52
82001;SHT30;71522;50.870;3.524;2023-08-20T14:53:16;30.37;46.41
82001;SHT30;71522;50.870;3.524;2023-08-20T14:55:43;30.07;51.77
82001;SHT30;71522;50.870;3.524;2023-08-20T14:58:08;30.00;47.39
82001;SHT30;71522;50.870;3.524;2023-08-20T15:00:34;30.21;54.88
82001;SHT30;71522;50.870;3.524;2023-08-20T15:03:00;29.72;50.71
82001;SHT30;71522;50.870;3.524;2023-08-20T15:05:26;29.34;57.01
82001;SHT30;71522;50.870;3.524;2023-08-20T15:07:52;28.42;55.75
82001;SHT30;71522;50.870;3.524;2023-08-20T15:10:19;27.66;57.53
82001;SHT30;71522;50.870;3.524;2023-08-20T15:12:46;27.23;58.87
82001;SHT30;71522;50.870;3.524;2023-08-20T15:15:14;27.43;59.79
82001;SHT30;71522;50.870;3.524;2023-08-20T15:17:40;27.49;57.53
82001;SHT30;71522;50.870;3.524;2023-08-20T15:20:06;27.60;58.19
82001;SHT30;71522;50.870;3.524;2023-08-20T15:22:36;27.95;59.08
82001;SHT30;71522;50.870;3.524;2023-08-20T15:25:03;28.08;57.63
82001;SHT30;71522;50.870;3.524;2023-08-20T15:27:30;28.19;57.98
82001;SHT30;71522;50.870;3.524;2023-08-20T15:29:56;28.42;55.40
82001;SHT30;71522;50.870;3.524;2023-08-20T15:32:23;28.76;54.97
82001;SHT30;71522;50.870;3.524;2023-08-20T15:34:54;28.66;56.99
82001;SHT30;71522;50.870;3.524;2023-08-20T15:37:19;29.03;56.76
82001;SHT30;71522;50.870;3.524;2023-08-20T15:39:46;29.00;55.45
82001;SHT30;71522;50.870;3.524;2023-08-20T15:42:12;29.15;53.96
82001;SHT30;71522;50.870;3.524;2023-08-20T15:44:39;28.89;53.76
82001;SHT30;71522;50.870;3.524;2023-08-20T15:47:07;28.79;53.83
82001;SHT30;71522;50.870;3.524;2023-08-20T15:49:33;29.35;54.42